Terminal Aerodrome Forecast
Issued by NWS

Home | Current Version | Previous Version | Text Only | Print | Product List | Glossary On
Versions: 1 2 3 4 5 6 7 8 9 10 11 12 13 14 15
000
FTUS41 KBTV 060532
TAFMPV
TAF
KMPV 060532Z 0606/0706 00000KT 4SM BR SKC
      TEMPO 0606/0607 1SM BR
     FM060700 00000KT 1/2SM FG VV001
      TEMPO 0607/0608 4SM BR FEW040
     FM061200 17004KT P6SM SCT040
      TEMPO 0612/0613 2SM BR BKN002
     FM070000 VRB03KT P6SM BKN250=

USA.gov is the U.S. government's official web portal to all federal, state and local government web resources and services.